sensor_id;sensor_type;location;lat;lon;timestamp;P1;durP1;ratioP1;P2;durP2;ratioP2
11481;SDS011;5797;51.662;6.748;2023-05-07T00:00:30;10.40;;;8.37;;
11481;SDS011;5797;51.662;6.748;2023-05-07T00:03:02;9.90;;;8.17;;
11481;SDS011;5797;51.662;6.748;2023-05-07T00:05:30;10.80;;;8.07;;
11481;SDS011;5797;51.662;6.748;2023-05-07T00:07:59;9.97;;;7.97;;
11481;SDS011;5797;51.662;6.748;2023-05-07T00:10:28;9.40;;;8.40;;
11481;SDS011;5797;51.662;6.748;2023-05-07T00:12:56;10.20;;;7.77;;
11481;SDS011;5797;51.662;6.748;2023-05-07T00:15:25;12.27;;;8.00;;
11481;SDS011;5797;51.662;6.748;2023-05-07T00:17:55;10.77;;;8.20;;
11481;SDS011;5797;51.662;6.748;2023-05-07T00:20:25;12.93;;;8.27;;
11481;SDS011;5797;51.662;6.748;2023-05-07T00:22:54;10.07;;;7.80;;
11481;SDS011;5797;51.662;6.748;2023-05-07T00:25:23;10.83;;;7.87;;
11481;SDS011;5797;51.662;6.748;2023-05-07T00:27:51;8.60;;;7.53;;
11481;SDS011;5797;51.662;6.748;2023-05-07T00:30:20;12.70;;;8.33;;
11481;SDS011;5797;51.662;6.748;2023-05-07T00:32:49;12.07;;;8.10;;
11481;SDS011;5797;51.662;6.748;2023-05-07T00:35:18;9.13;;;7.90;;
11481;SDS011;5797;51.662;6.748;2023-05-07T00:37:48;10.87;;;8.03;;
11481;SDS011;5797;51.662;6.748;2023-05-07T00:40:17;10.37;;;7.53;;
11481;SDS011;5797;51.662;6.748;2023-05-07T00:42:45;12.07;;;7.67;;
11481;SDS011;5797;51.662;6.748;2023-05-07T00:45:16;9.80;;;7.50;;
11481;SDS011;5797;51.662;6.748;2023-05-07T00:47:44;8.83;;;7.57;;
11481;SDS011;5797;51.662;6.748;2023-05-07T00:50:13;8.83;;;7.40;;
11481;SDS011;5797;51.662;6.748;2023-05-07T00:52:43;10.27;;;8.10;;
11481;SDS011;5797;51.662;6.748;2023-05-07T00:55:13;10.60;;;8.07;;
11481;SDS011;5797;51.662;6.748;2023-05-07T00:57:41;11.17;;;8.27;;
11481;SDS011;5797;51.662;6.748;2023-05-07T01:00:10;9.90;;;8.47;;
11481;SDS011;5797;51.662;6.748;2023-05-07T01:02:40;11.77;;;8.83;;
11481;SDS011;5797;51.662;6.748;2023-05-07T01:05:10;12.40;;;8.33;;
11481;SDS011;5797;51.662;6.748;2023-05-07T01:07:40;11.03;;;8.40;;
11481;SDS011;5797;51.662;6.748;2023-05-07T01:10:10;12.23;;;8.37;;
11481;SDS011;5797;51.662;6.748;2023-05-07T01:12:41;11.70;;;8.90;;
11481;SDS011;5797;51.662;6.748;2023-05-07T01:15:10;12.23;;;8.37;;
11481;SDS011;5797;51.662;6.748;2023-05-07T01:17:40;12.27;;;9.30;;
11481;SDS011;5797;51.662;6.748;2023-05-07T01:20:17;11.83;;;9.33;;
11481;SDS011;5797;51.662;6.748;2023-05-07T01:22:50;14.03;;;9.10;;
11481;SDS011;5797;51.662;6.748;2023-05-07T01:25:19;10.57;;;8.57;;
11481;SDS011;5797;51.662;6.748;2023-05-07T01:27:51;10.70;;;8.73;;
11481;SDS011;5797;51.662;6.748;2023-05-07T01:30:23;13.67;;;9.90;;
11481;SDS011;5797;51.662;6.748;2023-05-07T01:32:53;10.50;;;9.40;;
11481;SDS011;5797;51.662;6.748;2023-05-07T01:35:26;13.17;;;9.97;;
11481;SDS011;5797;51.662;6.748;2023-05-07T01:37:58;12.40;;;9.37;;
11481;SDS011;5797;51.662;6.748;2023-05-07T01:40:27;15.70;;;10.90;;
11481;SDS011;5797;51.662;6.748;2023-05-07T01:42:56;12.30;;;10.33;;
11481;SDS011;5797;51.662;6.748;2023-05-07T01:45:25;13.43;;;10.27;;
11481;SDS011;5797;51.662;6.748;2023-05-07T01:47:54;13.17;;;10.37;;
11481;SDS011;5797;51.662;6.748;2023-05-07T01:50:23;14.23;;;10.73;;
11481;SDS011;5797;51.662;6.748;2023-05-07T01:52:52;12.93;;;10.83;;
11481;SDS011;5797;51.662;6.748;2023-05-07T01:55:22;15.13;;;11.57;;
11481;SDS011;5797;51.662;6.748;2023-05-07T01:57:50;12.53;;;10.37;;
11481;SDS011;5797;51.662;6.748;2023-05-07T02:00:19;11.80;;;10.50;;
11481;SDS011;5797;51.662;6.748;2023-05-07T02:02:48;15.60;;;11.27;;
11481;SDS011;5797;51.662;6.748;2023-05-07T02:05:28;14.53;;;11.20;;
11481;SDS011;5797;51.662;6.748;2023-05-07T02:08:05;15.27;;;10.73;;
11481;SDS011;5797;51.662;6.748;2023-05-07T02:10:35;13.47;;;11.43;;
11481;SDS011;5797;51.662;6.748;2023-05-07T02:13:05;14.50;;;11.67;;
11481;SDS011;5797;51.662;6.748;2023-05-07T02:15:34;15.93;;;11.73;;
11481;SDS011;5797;51.662;6.748;2023-05-07T02:18:04;15.73;;;11.33;;
11481;SDS011;5797;51.662;6.748;2023-05-07T02:20:34;15.03;;;12.33;;
11481;SDS011;5797;51.662;6.748;2023-05-07T02:23:03;16.97;;;12.63;;
11481;SDS011;5797;51.662;6.748;2023-05-07T02:25:31;17.03;;;11.97;;
11481;SDS011;5797;51.662;6.748;2023-05-07T02:28:01;15.53;;;12.63;;
11481;SDS011;5797;51.662;6.748;2023-05-07T02:30:41;15.83;;;11.80;;
11481;SDS011;5797;51.662;6.748;2023-05-07T02:33:10;19.67;;;12.60;;
11481;SDS011;5797;51.662;6.748;2023-05-07T02:35:39;17.80;;;12.93;;
11481;SDS011;5797;51.662;6.748;2023-05-07T02:38:09;18.63;;;13.07;;
11481;SDS011;5797;51.662;6.748;2023-05-07T02:40:39;15.83;;;12.40;;
11481;SDS011;5797;51.662;6.748;2023-05-07T02:43:09;16.83;;;12.87;;
11481;SDS011;5797;51.662;6.748;2023-05-07T02:45:41;20.20;;;13.80;;
11481;SDS011;5797;51.662;6.748;2023-05-07T02:48:12;17.33;;;12.33;;
11481;SDS011;5797;51.662;6.748;2023-05-07T02:50:40;17.60;;;12.53;;
11481;SDS011;5797;51.662;6.748;2023-05-07T02:53:11;16.73;;;12.30;;
11481;SDS011;5797;51.662;6.748;2023-05-07T02:55:39;16.40;;;13.33;;
11481;SDS011;5797;51.662;6.748;2023-05-07T02:58:09;16.60;;;12.77;;
11481;SDS011;5797;51.662;6.748;2023-05-07T03:00:40;19.90;;;13.30;;
11481;SDS011;5797;51.662;6.748;2023-05-07T03:03:34;17.77;;;13.63;;
11481;SDS011;5797;51.662;6.748;2023-05-07T03:06:03;16.63;;;13.03;;
11481;SDS011;5797;51.662;6.748;2023-05-07T03:08:32;18.03;;;12.87;;
11481;SDS011;5797;51.662;6.748;2023-05-07T03:11:01;19.23;;;12.93;;
11481;SDS011;5797;51.662;6.748;2023-05-07T03:13:31;17.07;;;12.53;;
11481;SDS011;5797;51.662;6.748;2023-05-07T03:16:00;17.33;;;12.83;;
11481;SDS011;5797;51.662;6.748;2023-05-07T03:18:29;17.60;;;12.27;;
11481;SDS011;5797;51.662;6.748;2023-05-07T03:20:57;16.93;;;13.13;;
11481;SDS011;5797;51.662;6.748;2023-05-07T03:23:26;16.10;;;13.13;;
11481;SDS011;5797;51.662;6.748;2023-05-07T03:25:55;18.53;;;13.50;;
11481;SDS011;5797;51.662;6.748;2023-05-07T03:28:24;16.57;;;12.27;;
11481;SDS011;5797;51.662;6.748;2023-05-07T03:30:59;15.90;;;12.37;;
11481;SDS011;5797;51.662;6.748;2023-05-07T03:33:29;18.80;;;13.30;;
11481;SDS011;5797;51.662;6.748;2023-05-07T03:35:58;18.87;;;13.07;;
11481;SDS011;5797;51.662;6.748;2023-05-07T03:38:27;17.63;;;12.83;;
11481;SDS011;5797;51.662;6.748;2023-05-07T03:40:57;18.30;;;13.00;;
11481;SDS011;5797;51.662;6.748;2023-05-07T03:43:26;17.47;;;12.97;;
11481;SDS011;5797;51.662;6.748;2023-05-07T03:46:04;18.00;;;12.80;;
11481;SDS011;5797;51.662;6.748;2023-05-07T03:48:33;17.10;;;13.10;;
11481;SDS011;5797;51.662;6.748;2023-05-07T03:51:02;16.37;;;12.87;;
11481;SDS011;5797;51.662;6.748;2023-05-07T03:53:32;17.27;;;12.77;;
11481;SDS011;5797;51.662;6.748;2023-05-07T03:56:01;16.20;;;12.47;;
11481;SDS011;5797;51.662;6.748;2023-05-07T03:58:34;16.00;;;12.43;;
11481;SDS011;5797;51.662;6.748;2023-05-07T04:01:10;18.87;;;12.93;;
11481;SDS011;5797;51.662;6.748;2023-05-07T04:03:39;17.47;;;13.10;;
11481;SDS011;5797;51.662;6.748;2023-05-07T04:06:08;18.80;;;13.27;;
11481;SDS011;5797;51.662;6.748;2023-05-07T04:08:37;17.60;;;13.00;;
11481;SDS011;5797;51.662;6.748;2023-05-07T04:11:07;18.27;;;12.50;;
11481;SDS011;5797;51.662;6.748;2023-05-07T04:13:37;20.20;;;13.30;;
11481;SDS011;5797;51.662;6.748;2023-05-07T04:16:07;14.87;;;12.77;;
11481;SDS011;5797;51.662;6.748;2023-05-07T04:18:39;17.67;;;12.77;;
11481;SDS011;5797;51.662;6.748;2023-05-07T04:21:13;16.07;;;13.20;;
11481;SDS011;5797;51.662;6.748;2023-05-07T04:23:43;16.93;;;14.00;;
11481;SDS011;5797;51.662;6.748;2023-05-07T04:26:13;19.17;;;14.47;;
11481;SDS011;5797;51.662;6.748;2023-05-07T04:28:44;15.13;;;12.87;;
11481;SDS011;5797;51.662;6.748;2023-05-07T04:31:14;18.80;;;13.97;;
11481;SDS011;5797;51.662;6.748;2023-05-07T04:33:45;18.77;;;13.50;;
11481;SDS011;5797;51.662;6.748;2023-05-07T04:36:15;17.33;;;12.90;;
11481;SDS011;5797;51.662;6.748;2023-05-07T04:38:49;16.57;;;13.27;;
11481;SDS011;5797;51.662;6.748;2023-05-07T04:41:19;16.47;;;12.80;;
11481;SDS011;5797;51.662;6.748;2023-05-07T04:43:49;16.07;;;13.13;;
11481;SDS011;5797;51.662;6.748;2023-05-07T04:46:21;17.27;;;12.53;;
11481;SDS011;5797;51.662;6.748;2023-05-07T04:48:52;16.33;;;12.67;;
11481;SDS011;5797;51.662;6.748;2023-05-07T04:51:21;17.83;;;13.47;;
11481;SDS011;5797;51.662;6.748;2023-05-07T04:53:50;17.27;;;13.83;;
11481;SDS011;5797;51.662;6.748;2023-05-07T04:56:18;17.97;;;12.97;;
11481;SDS011;5797;51.662;6.748;2023-05-07T04:58:47;18.50;;;13.77;;
11481;SDS011;5797;51.662;6.748;2023-05-07T05:01:19;17.70;;;12.50;;
11481;SDS011;5797;51.662;6.748;2023-05-07T05:03:48;18.80;;;12.73;;
11481;SDS011;5797;51.662;6.748;2023-05-07T05:06:20;14.87;;;12.47;;
11481;SDS011;5797;51.662;6.748;2023-05-07T05:08:50;18.43;;;12.60;;
11481;SDS011;5797;51.662;6.748;2023-05-07T05:11:20;16.60;;;13.00;;
11481;SDS011;5797;51.662;6.748;2023-05-07T05:13:50;17.17;;;12.97;;
11481;SDS011;5797;51.662;6.748;2023-05-07T05:16:20;17.33;;;13.07;;
11481;SDS011;5797;51.662;6.748;2023-05-07T05:18:50;18.47;;;13.20;;
11481;SDS011;5797;51.662;6.748;2023-05-07T05:21:21;16.90;;;11.97;;
11481;SDS011;5797;51.662;6.748;2023-05-07T05:23:54;16.97;;;13.23;;
11481;SDS011;5797;51.662;6.748;2023-05-07T05:26:25;16.03;;;12.20;;
11481;SDS011;5797;51.662;6.748;2023-05-07T05:28:56;16.80;;;12.90;;
11481;SDS011;5797;51.662;6.748;2023-05-07T05:31:28;15.07;;;12.10;;
11481;SDS011;5797;51.662;6.748;2023-05-07T05:33:58;16.83;;;13.10;;
11481;SDS011;5797;51.662;6.748;2023-05-07T05:36:29;18.97;;;13.77;;
11481;SDS011;5797;51.662;6.748;2023-05-07T05:38:58;16.37;;;11.93;;
11481;SDS011;5797;51.662;6.748;2023-05-07T05:41:28;16.67;;;12.73;;
11481;SDS011;5797;51.662;6.748;2023-05-07T05:43:57;17.00;;;12.13;;
11481;SDS011;5797;51.662;6.748;2023-05-07T05:46:26;14.30;;;11.50;;
11481;SDS011;5797;51.662;6.748;2023-05-07T05:48:55;15.70;;;12.47;;
11481;SDS011;5797;51.662;6.748;2023-05-07T05:51:24;15.43;;;11.77;;
11481;SDS011;5797;51.662;6.748;2023-05-07T05:53:55;17.13;;;12.13;;
11481;SDS011;5797;51.662;6.748;2023-05-07T05:56:23;15.97;;;11.93;;
11481;SDS011;5797;51.662;6.748;2023-05-07T05:58:53;16.60;;;11.90;;
11481;SDS011;5797;51.662;6.748;2023-05-07T06:01:22;16.43;;;12.10;;
11481;SDS011;5797;51.662;6.748;2023-05-07T06:03:52;17.93;;;11.30;;
11481;SDS011;5797;51.662;6.748;2023-05-07T06:06:21;14.60;;;11.30;;
11481;SDS011;5797;51.662;6.748;2023-05-07T06:08:50;16.40;;;11.43;;
11481;SDS011;5797;51.662;6.748;2023-05-07T06:11:26;12.97;;;10.30;;
11481;SDS011;5797;51.662;6.748;2023-05-07T06:13:55;12.40;;;10.37;;
11481;SDS011;5797;51.662;6.748;2023-05-07T06:16:24;14.33;;;10.83;;
11481;SDS011;5797;51.662;6.748;2023-05-07T06:18:53;12.50;;;10.17;;
11481;SDS011;5797;51.662;6.748;2023-05-07T06:21:22;16.63;;;10.47;;
11481;SDS011;5797;51.662;6.748;2023-05-07T06:23:51;13.13;;;10.20;;
11481;SDS011;5797;51.662;6.748;2023-05-07T06:26:22;13.97;;;10.10;;
11481;SDS011;5797;51.662;6.748;2023-05-07T06:28:53;13.10;;;9.80;;
11481;SDS011;5797;51.662;6.748;2023-05-07T06:31:23;12.60;;;9.70;;
11481;SDS011;5797;51.662;6.748;2023-05-07T06:34:01;12.33;;;10.03;;
11481;SDS011;5797;51.662;6.748;2023-05-07T06:36:35;12.43;;;9.13;;
11481;SDS011;5797;51.662;6.748;2023-05-07T06:39:12;12.50;;;9.73;;
11481;SDS011;5797;51.662;6.748;2023-05-07T06:41:42;11.63;;;8.80;;
11481;SDS011;5797;51.662;6.748;2023-05-07T06:44:23;10.83;;;8.90;;
11481;SDS011;5797;51.662;6.748;2023-05-07T06:47:02;12.90;;;9.27;;
11481;SDS011;5797;51.662;6.748;2023-05-07T06:49:32;11.00;;;8.13;;
11481;SDS011;5797;51.662;6.748;2023-05-07T06:52:00;10.10;;;8.33;;
11481;SDS011;5797;51.662;6.748;2023-05-07T06:54:29;11.17;;;8.83;;
11481;SDS011;5797;51.662;6.748;2023-05-07T06:56:58;12.60;;;7.80;;
11481;SDS011;5797;51.662;6.748;2023-05-07T06:59:29;11.80;;;8.17;;
11481;SDS011;5797;51.662;6.748;2023-05-07T07:01:59;10.03;;;8.27;;
11481;SDS011;5797;51.662;6.748;2023-05-07T07:04:27;10.47;;;8.07;;
11481;SDS011;5797;51.662;6.748;2023-05-07T07:07:03;11.40;;;7.90;;
11481;SDS011;5797;51.662;6.748;2023-05-07T07:09:32;8.90;;;7.00;;
11481;SDS011;5797;51.662;6.748;2023-05-07T07:12:02;9.77;;;6.50;;
11481;SDS011;5797;51.662;6.748;2023-05-07T07:14:33;10.40;;;7.20;;
11481;SDS011;5797;51.662;6.748;2023-05-07T07:17:01;10.07;;;7.10;;
11481;SDS011;5797;51.662;6.748;2023-05-07T07:19:33;12.47;;;7.90;;
11481;SDS011;5797;51.662;6.748;2023-05-07T07:22:03;9.53;;;7.00;;
11481;SDS011;5797;51.662;6.748;2023-05-07T07:24:32;14.67;;;7.47;;
11481;SDS011;5797;51.662;6.748;2023-05-07T07:27:04;9.60;;;7.13;;
11481;SDS011;5797;51.662;6.748;2023-05-07T07:29:35;10.27;;;6.93;;
11481;SDS011;5797;51.662;6.748;2023-05-07T07:32:04;8.50;;;6.70;;
11481;SDS011;5797;51.662;6.748;2023-05-07T07:34:33;12.83;;;8.00;;
11481;SDS011;5797;51.662;6.748;2023-05-07T07:37:02;7.60;;;6.70;;
11481;SDS011;5797;51.662;6.748;2023-05-07T07:39:34;7.90;;;6.27;;
11481;SDS011;5797;51.662;6.748;2023-05-07T07:42:05;9.40;;;6.50;;
11481;SDS011;5797;51.662;6.748;2023-05-07T07:44:36;8.03;;;5.90;;
11481;SDS011;5797;51.662;6.748;2023-05-07T07:47:08;11.13;;;6.27;;
11481;SDS011;5797;51.662;6.748;2023-05-07T07:49:37;9.87;;;6.40;;
11481;SDS011;5797;51.662;6.748;2023-05-07T07:52:08;9.37;;;6.07;;
11481;SDS011;5797;51.662;6.748;2023-05-07T07:54:42;9.20;;;6.47;;
11481;SDS011;5797;51.662;6.748;2023-05-07T07:57:11;8.93;;;5.73;;
11481;SDS011;5797;51.662;6.748;2023-05-07T07:59:41;7.50;;;5.93;;
11481;SDS011;5797;51.662;6.748;2023-05-07T08:02:12;7.30;;;6.23;;
11481;SDS011;5797;51.662;6.748;2023-05-07T08:04:41;7.60;;;6.53;;
11481;SDS011;5797;51.662;6.748;2023-05-07T08:07:11;6.33;;;5.03;;
11481;SDS011;5797;51.662;6.748;2023-05-07T08:09:42;8.33;;;6.50;;
11481;SDS011;5797;51.662;6.748;2023-05-07T08:12:11;8.33;;;6.37;;
11481;SDS011;5797;51.662;6.748;2023-05-07T08:14:41;10.00;;;6.50;;
11481;SDS011;5797;51.662;6.748;2023-05-07T08:17:10;9.83;;;6.40;;
11481;SDS011;5797;51.662;6.748;2023-05-07T08:19:40;9.50;;;6.47;;
11481;SDS011;5797;51.662;6.748;2023-05-07T08:22:11;7.83;;;6.50;;
11481;SDS011;5797;51.662;6.748;2023-05-07T08:24:40;8.07;;;6.50;;
11481;SDS011;5797;51.662;6.748;2023-05-07T08:27:10;7.93;;;6.00;;
11481;SDS011;5797;51.662;6.748;2023-05-07T08:29:42;8.80;;;6.37;;
11481;SDS011;5797;51.662;6.748;2023-05-07T08:32:15;8.97;;;5.40;;
11481;SDS011;5797;51.662;6.748;2023-05-07T08:34:43;7.80;;;5.97;;
11481;SDS011;5797;51.662;6.748;2023-05-07T08:37:12;5.63;;;5.00;;
11481;SDS011;5797;51.662;6.748;2023-05-07T08:39:41;5.83;;;4.77;;
11481;SDS011;5797;51.662;6.748;2023-05-07T08:42:16;9.07;;;5.37;;
11481;SDS011;5797;51.662;6.748;2023-05-07T08:44:47;6.47;;;5.20;;
11481;SDS011;5797;51.662;6.748;2023-05-07T08:47:21;5.83;;;5.20;;
11481;SDS011;5797;51.662;6.748;2023-05-07T08:49:52;9.17;;;5.37;;
11481;SDS011;5797;51.662;6.748;2023-05-07T08:52:23;6.33;;;5.37;;
11481;SDS011;5797;51.662;6.748;2023-05-07T08:54:51;8.83;;;5.80;;
11481;SDS011;5797;51.662;6.748;2023-05-07T08:57:21;7.20;;;5.03;;
11481;SDS011;5797;51.662;6.748;2023-05-07T08:59:53;7.47;;;4.60;;
11481;SDS011;5797;51.662;6.748;2023-05-07T09:02:22;7.47;;;5.20;;
11481;SDS011;5797;51.662;6.748;2023-05-07T09:04:51;7.40;;;5.40;;
11481;SDS011;5797;51.662;6.748;2023-05-07T09:07:20;7.27;;;5.13;;
11481;SDS011;5797;51.662;6.748;2023-05-07T09:09:49;6.10;;;5.00;;
11481;SDS011;5797;51.662;6.748;2023-05-07T09:12:19;8.27;;;4.53;;
11481;SDS011;5797;51.662;6.748;2023-05-07T09:14:48;5.50;;;4.90;;
11481;SDS011;5797;51.662;6.748;2023-05-07T09:17:18;6.13;;;4.83;;
11481;SDS011;5797;51.662;6.748;2023-05-07T09:19:47;6.37;;;5.00;;
11481;SDS011;5797;51.662;6.748;2023-05-07T09:22:16;6.30;;;5.70;;
11481;SDS011;5797;51.662;6.748;2023-05-07T09:24:57;5.60;;;5.10;;
11481;SDS011;5797;51.662;6.748;2023-05-07T09:27:27;7.30;;;5.83;;
11481;SDS011;5797;51.662;6.748;2023-05-07T09:29:57;6.80;;;5.07;;
11481;SDS011;5797;51.662;6.748;2023-05-07T09:32:27;6.43;;;5.50;;
11481;SDS011;5797;51.662;6.748;2023-05-07T09:34:58;8.93;;;6.27;;
11481;SDS011;5797;51.662;6.748;2023-05-07T09:37:28;7.63;;;5.90;;
11481;SDS011;5797;51.662;6.748;2023-05-07T09:39:59;5.43;;;4.27;;
11481;SDS011;5797;51.662;6.748;2023-05-07T09:42:30;4.27;;;3.60;;
11481;SDS011;5797;51.662;6.748;2023-05-07T09:45:02;8.85;;;4.18;;
11481;SDS011;5797;51.662;6.748;2023-05-07T09:47:38;4.97;;;3.80;;
11481;SDS011;5797;51.662;6.748;2023-05-07T09:50:08;4.70;;;4.00;;
11481;SDS011;5797;51.662;6.748;2023-05-07T09:52:38;6.57;;;4.10;;
11481;SDS011;5797;51.662;6.748;2023-05-07T09:55:11;6.03;;;4.00;;
11481;SDS011;5797;51.662;6.748;2023-05-07T09:57:41;5.38;;;4.25;;
11481;SDS011;5797;51.662;6.748;2023-05-07T10:00:10;9.77;;;5.05;;
11481;SDS011;5797;51.662;6.748;2023-05-07T10:02:50;4.43;;;4.03;;
11481;SDS011;5797;51.662;6.748;2023-05-07T10:05:28;6.82;;;4.20;;
11481;SDS011;5797;51.662;6.748;2023-05-07T10:07:59;5.22;;;3.85;;
11481;SDS011;5797;51.662;6.748;2023-05-07T10:10:30;4.13;;;3.28;;
11481;SDS011;5797;51.662;6.748;2023-05-07T10:13:01;3.25;;;2.85;;
11481;SDS011;5797;51.662;6.748;2023-05-07T10:15:33;5.47;;;3.40;;
11481;SDS011;5797;51.662;6.748;2023-05-07T10:18:04;4.55;;;3.50;;
11481;SDS011;5797;51.662;6.748;2023-05-07T10:20:35;6.55;;;4.10;;
11481;SDS011;5797;51.662;6.748;2023-05-07T10:23:06;3.78;;;3.30;;
11481;SDS011;5797;51.662;6.748;2023-05-07T10:25:41;2.85;;;2.55;;
11481;SDS011;5797;51.662;6.748;2023-05-07T10:28:17;3.72;;;3.17;;
11481;SDS011;5797;51.662;6.748;2023-05-07T10:30:49;4.28;;;2.97;;
11481;SDS011;5797;51.662;6.748;2023-05-07T10:33:35;4.80;;;2.88;;
11481;SDS011;5797;51.662;6.748;2023-05-07T10:36:05;5.55;;;2.88;;
11481;SDS011;5797;51.662;6.748;2023-05-07T10:38:34;3.83;;;3.28;;
11481;SDS011;5797;51.662;6.748;2023-05-07T10:41:03;4.68;;;3.30;;
11481;SDS011;5797;51.662;6.748;2023-05-07T10:43:39;3.45;;;3.10;;
11481;SDS011;5797;51.662;6.748;2023-05-07T10:46:14;5.40;;;4.38;;
11481;SDS011;5797;51.662;6.748;2023-05-07T10:49:08;6.00;;;4.60;;
11481;SDS011;5797;51.662;6.748;2023-05-07T10:52:10;10.77;;;5.38;;
11481;SDS011;5797;51.662;6.748;2023-05-07T10:54:44;5.32;;;4.82;;
11481;SDS011;5797;51.662;6.748;2023-05-07T10:57:33;4.82;;;3.78;;
11481;SDS011;5797;51.662;6.748;2023-05-07T11:03:20;4.50;;;4.10;;
11481;SDS011;5797;51.662;6.748;2023-05-07T11:06:09;8.80;;;4.82;;
11481;SDS011;5797;51.662;6.748;2023-05-07T11:08:53;4.55;;;3.33;;
11481;SDS011;5797;51.662;6.748;2023-05-07T11:11:45;5.97;;;4.10;;
11481;SDS011;5797;51.662;6.748;2023-05-07T11:14:42;4.97;;;3.70;;
11481;SDS011;5797;51.662;6.748;2023-05-07T11:17:19;4.72;;;3.50;;
11481;SDS011;5797;51.662;6.748;2023-05-07T11:19:55;6.28;;;3.60;;
11481;SDS011;5797;51.662;6.748;2023-05-07T11:22:38;4.35;;;3.83;;
11481;SDS011;5797;51.662;6.748;2023-05-07T11:25:19;6.00;;;3.95;;
11481;SDS011;5797;51.662;6.748;2023-05-07T11:28:08;5.30;;;4.78;;
11481;SDS011;5797;51.662;6.748;2023-05-07T11:30:44;6.55;;;4.35;;
11481;SDS011;5797;51.662;6.748;2023-05-07T11:33:16;5.32;;;3.90;;
11481;SDS011;5797;51.662;6.748;2023-05-07T11:35:46;7.03;;;4.35;;
11481;SDS011;5797;51.662;6.748;2023-05-07T11:38:19;7.28;;;5.53;;
11481;SDS011;5797;51.662;6.748;2023-05-07T11:40:48;4.13;;;3.72;;
11481;SDS011;5797;51.662;6.748;2023-05-07T11:43:18;4.57;;;3.80;;
11481;SDS011;5797;51.662;6.748;2023-05-07T11:45:46;4.75;;;4.25;;
11481;SDS011;5797;51.662;6.748;2023-05-07T11:48:15;6.10;;;3.83;;
11481;SDS011;5797;51.662;6.748;2023-05-07T11:50:51;4.25;;;3.50;;
11481;SDS011;5797;51.662;6.748;2023-05-07T11:53:22;3.72;;;3.42;;
11481;SDS011;5797;51.662;6.748;2023-05-07T11:55:53;5.40;;;3.50;;
11481;SDS011;5797;51.662;6.748;2023-05-07T11:58:22;7.05;;;4.18;;
11481;SDS011;5797;51.662;6.748;2023-05-07T12:00:51;5.47;;;4.20;;
11481;SDS011;5797;51.662;6.748;2023-05-07T12:03:20;4.03;;;3.65;;
11481;SDS011;5797;51.662;6.748;2023-05-07T12:05:49;5.95;;;3.88;;
11481;SDS011;5797;51.662;6.748;2023-05-07T12:08:18;8.38;;;3.78;;
11481;SDS011;5797;51.662;6.748;2023-05-07T12:10:49;6.80;;;3.90;;
11481;SDS011;5797;51.662;6.748;2023-05-07T12:13:24;5.75;;;4.07;;
11481;SDS011;5797;51.662;6.748;2023-05-07T12:15:54;5.57;;;3.78;;
11481;SDS011;5797;51.662;6.748;2023-05-07T12:18:23;6.50;;;3.90;;
11481;SDS011;5797;51.662;6.748;2023-05-07T12:20:53;5.07;;;3.75;;
11481;SDS011;5797;51.662;6.748;2023-05-07T12:23:21;5.47;;;3.75;;
11481;SDS011;5797;51.662;6.748;2023-05-07T12:25:52;10.85;;;3.75;;
11481;SDS011;5797;51.662;6.748;2023-05-07T12:28:20;5.03;;;3.55;;
11481;SDS011;5797;51.662;6.748;2023-05-07T12:30:49;5.57;;;3.90;;
11481;SDS011;5797;51.662;6.748;2023-05-07T12:33:19;4.95;;;3.70;;
11481;SDS011;5797;51.662;6.748;2023-05-07T12:35:53;4.43;;;4.03;;
11481;SDS011;5797;51.662;6.748;2023-05-07T12:38:22;7.60;;;4.18;;
11481;SDS011;5797;51.662;6.748;2023-05-07T12:40:54;4.38;;;3.80;;
11481;SDS011;5797;51.662;6.748;2023-05-07T12:43:24;4.97;;;3.58;;
11481;SDS011;5797;51.662;6.748;2023-05-07T12:45:55;5.15;;;3.60;;
11481;SDS011;5797;51.662;6.748;2023-05-07T12:48:25;3.92;;;3.53;;
11481;SDS011;5797;51.662;6.748;2023-05-07T12:50:54;4.82;;;4.15;;
11481;SDS011;5797;51.662;6.748;2023-05-07T12:53:24;4.93;;;3.60;;
11481;SDS011;5797;51.662;6.748;2023-05-07T12:55:56;5.65;;;4.07;;
11481;SDS011;5797;51.662;6.748;2023-05-07T12:58:27;4.93;;;3.88;;
11481;SDS011;5797;51.662;6.748;2023-05-07T13:00:58;4.18;;;3.55;;
11481;SDS011;5797;51.662;6.748;2023-05-07T13:03:28;5.18;;;3.83;;
11481;SDS011;5797;51.662;6.748;2023-05-07T13:05:57;5.20;;;4.35;;
11481;SDS011;5797;51.662;6.748;2023-05-07T13:08:28;6.90;;;4.13;;
11481;SDS011;5797;51.662;6.748;2023-05-07T13:11:01;5.35;;;4.25;;
11481;SDS011;5797;51.662;6.748;2023-05-07T13:13:30;5.30;;;4.20;;
11481;SDS011;5797;51.662;6.748;2023-05-07T13:15:59;6.05;;;4.57;;
11481;SDS011;5797;51.662;6.748;2023-05-07T13:18:29;6.40;;;5.05;;
11481;SDS011;5797;51.662;6.748;2023-05-07T13:20:58;5.43;;;4.28;;
11481;SDS011;5797;51.662;6.748;2023-05-07T13:23:28;6.30;;;4.43;;
11481;SDS011;5797;51.662;6.748;2023-05-07T13:25:57;5.88;;;4.60;;
11481;SDS011;5797;51.662;6.748;2023-05-07T13:28:29;6.18;;;4.85;;
11481;SDS011;5797;51.662;6.748;2023-05-07T13:30:58;8.50;;;4.80;;
11481;SDS011;5797;51.662;6.748;2023-05-07T13:33:27;6.97;;;4.78;;
11481;SDS011;5797;51.662;6.748;2023-05-07T13:35:55;5.50;;;4.85;;
11481;SDS011;5797;51.662;6.748;2023-05-07T13:38:25;6.22;;;4.55;;
11481;SDS011;5797;51.662;6.748;2023-05-07T13:40:54;8.73;;;5.50;;
11481;SDS011;5797;51.662;6.748;2023-05-07T13:43:22;7.63;;;5.75;;
11481;SDS011;5797;51.662;6.748;2023-05-07T13:45:52;6.50;;;4.55;;
11481;SDS011;5797;51.662;6.748;2023-05-07T13:48:21;7.05;;;5.03;;
11481;SDS011;5797;51.662;6.748;2023-05-07T13:50:50;7.28;;;4.72;;
11481;SDS011;5797;51.662;6.748;2023-05-07T13:53:18;7.20;;;4.80;;
11481;SDS011;5797;51.662;6.748;2023-05-07T13:55:47;6.65;;;4.45;;
11481;SDS011;5797;51.662;6.748;2023-05-07T13:58:15;5.82;;;4.18;;
11481;SDS011;5797;51.662;6.748;2023-05-07T14:00:44;5.82;;;4.32;;
11481;SDS011;5797;51.662;6.748;2023-05-07T14:03:14;5.47;;;4.18;;
11481;SDS011;5797;51.662;6.748;2023-05-07T14:05:44;4.60;;;4.10;;
11481;SDS011;5797;51.662;6.748;2023-05-07T14:08:15;4.95;;;4.13;;
11481;SDS011;5797;51.662;6.748;2023-05-07T14:10:45;4.82;;;4.07;;
11481;SDS011;5797;51.662;6.748;2023-05-07T14:13:14;5.72;;;4.50;;
11481;SDS011;5797;51.662;6.748;2023-05-07T14:15:42;5.25;;;4.35;;
11481;SDS011;5797;51.662;6.748;2023-05-07T14:18:14;8.48;;;5.00;;
11481;SDS011;5797;51.662;6.748;2023-05-07T14:20:43;5.65;;;4.85;;
11481;SDS011;5797;51.662;6.748;2023-05-07T14:23:13;6.78;;;5.10;;
11481;SDS011;5797;51.662;6.748;2023-05-07T14:25:41;6.32;;;4.50;;
11481;SDS011;5797;51.662;6.748;2023-05-07T14:28:10;8.55;;;4.88;;
11481;SDS011;5797;51.662;6.748;2023-05-07T14:30:38;7.15;;;5.10;;
11481;SDS011;5797;51.662;6.748;2023-05-07T14:33:07;8.80;;;5.60;;
11481;SDS011;5797;51.662;6.748;2023-05-07T14:35:37;10.20;;;5.63;;
11481;SDS011;5797;51.662;6.748;2023-05-07T14:38:05;7.35;;;5.45;;
11481;SDS011;5797;51.662;6.748;2023-05-07T14:40:34;7.68;;;5.38;;
11481;SDS011;5797;51.662;6.748;2023-05-07T14:43:02;6.95;;;4.95;;
11481;SDS011;5797;51.662;6.748;2023-05-07T14:45:31;6.22;;;5.30;;
11481;SDS011;5797;51.662;6.748;2023-05-07T14:47:59;6.45;;;5.50;;
11481;SDS011;5797;51.662;6.748;2023-05-07T14:50:27;6.47;;;5.32;;
11481;SDS011;5797;51.662;6.748;2023-05-07T14:52:57;6.82;;;5.20;;
11481;SDS011;5797;51.662;6.748;2023-05-07T14:55:26;6.40;;;4.90;;
11481;SDS011;5797;51.662;6.748;2023-05-07T14:57:55;6.47;;;5.28;;
11481;SDS011;5797;51.662;6.748;2023-05-07T15:00:24;8.23;;;5.30;;
11481;SDS011;5797;51.662;6.748;2023-05-07T15:02:53;6.05;;;5.07;;
11481;SDS011;5797;51.662;6.748;2023-05-07T15:05:21;7.03;;;5.60;;
11481;SDS011;5797;51.662;6.748;2023-05-07T15:07:50;8.07;;;5.18;;
11481;SDS011;5797;51.662;6.748;2023-05-07T15:10:20;5.63;;;4.93;;
11481;SDS011;5797;51.662;6.748;2023-05-07T15:12:48;6.80;;;5.32;;
11481;SDS011;5797;51.662;6.748;2023-05-07T15:15:17;7.93;;;4.63;;